Terminal Aerodrome Forecast
Issued by NWS

Home | Current Version | Previous Version | Text Only | Print | Product List | Glossary On
Versions: 1 2 3 4 5 6 7 8 9 10 11 12 13
000
FTUS44 KLIX 300523
TAFGPT
TAF
KGPT 300523Z 3006/3106 28005KT P6SM BKN250
     FM301200 32006KT P6SM FEW030 BKN250
     FM301800 33005KT P6SM VCTS SCT035CB BKN250=

USA.gov is the U.S. government's official web portal to all federal, state and local government web resources and services.